sensor_id;sensor_type;location;lat;lon;timestamp;P1;durP1;ratioP1;P2;durP2;ratioP2
66429;SDS011;53242;51.694;10.006;2022-09-13T00:01:52;8.15;;;2.28;;
66429;SDS011;53242;51.694;10.006;2022-09-13T00:04:15;6.13;;;2.50;;
66429;SDS011;53242;51.694;10.006;2022-09-13T00:06:37;5.85;;;2.45;;
66429;SDS011;53242;51.694;10.006;2022-09-13T00:09:00;5.18;;;2.13;;
66429;SDS011;53242;51.694;10.006;2022-09-13T00:11:23;6.03;;;2.10;;
66429;SDS011;53242;51.694;10.006;2022-09-13T00:13:47;3.58;;;1.95;;
66429;SDS011;53242;51.694;10.006;2022-09-13T00:16:10;6.18;;;2.42;;
66429;SDS011;53242;51.694;10.006;2022-09-13T00:18:34;6.60;;;2.50;;
66429;SDS011;53242;51.694;10.006;2022-09-13T00:21:04;4.68;;;2.20;;
66429;SDS011;53242;51.694;10.006;2022-09-13T00:23:34;5.32;;;2.13;;
66429;SDS011;53242;51.694;10.006;2022-09-13T00:26:04;5.10;;;2.33;;
66429;SDS011;53242;51.694;10.006;2022-09-13T00:28:29;4.55;;;2.13;;
66429;SDS011;53242;51.694;10.006;2022-09-13T00:30:51;7.72;;;2.30;;
66429;SDS011;53242;51.694;10.006;2022-09-13T00:33:14;4.13;;;2.13;;
66429;SDS011;53242;51.694;10.006;2022-09-13T00:35:36;6.03;;;2.28;;
66429;SDS011;53242;51.694;10.006;2022-09-13T00:37:59;7.45;;;2.70;;
66429;SDS011;53242;51.694;10.006;2022-09-13T00:40:22;7.35;;;2.40;;
66429;SDS011;53242;51.694;10.006;2022-09-13T00:42:45;7.13;;;2.45;;
66429;SDS011;53242;51.694;10.006;2022-09-13T00:50:15;5.60;;;2.17;;
66429;SDS011;53242;51.694;10.006;2022-09-13T00:52:39;7.47;;;2.45;;
66429;SDS011;53242;51.694;10.006;2022-09-13T00:55:04;5.93;;;2.70;;
66429;SDS011;53242;51.694;10.006;2022-09-13T00:57:33;6.75;;;2.55;;
66429;SDS011;53242;51.694;10.006;2022-09-13T01:00:02;6.90;;;2.58;;
66429;SDS011;53242;51.694;10.006;2022-09-13T01:02:35;7.05;;;2.55;;
66429;SDS011;53242;51.694;10.006;2022-09-13T01:04:59;7.82;;;2.65;;
66429;SDS011;53242;51.694;10.006;2022-09-13T01:07:22;5.32;;;2.50;;
66429;SDS011;53242;51.694;10.006;2022-09-13T01:09:45;4.38;;;2.28;;
66429;SDS011;53242;51.694;10.006;2022-09-13T01:15:02;5.85;;;2.30;;
66429;SDS011;53242;51.694;10.006;2022-09-13T01:17:27;7.35;;;2.80;;
66429;SDS011;53242;51.694;10.006;2022-09-13T01:19:51;6.38;;;2.63;;
66429;SDS011;53242;51.694;10.006;2022-09-13T01:22:28;6.28;;;2.53;;
66429;SDS011;53242;51.694;10.006;2022-09-13T01:25:18;5.00;;;2.25;;
66429;SDS011;53242;51.694;10.006;2022-09-13T01:30:23;4.70;;;2.20;;
66429;SDS011;53242;51.694;10.006;2022-09-13T01:43:47;6.82;;;2.40;;
66429;SDS011;53242;51.694;10.006;2022-09-13T01:46:37;6.13;;;2.33;;
66429;SDS011;53242;51.694;10.006;2022-09-13T01:49:17;8.00;;;2.50;;
66429;SDS011;53242;51.694;10.006;2022-09-13T01:51:55;6.15;;;2.40;;
66429;SDS011;53242;51.694;10.006;2022-09-13T01:54:44;5.82;;;2.47;;
66429;SDS011;53242;51.694;10.006;2022-09-13T02:02:09;5.57;;;2.50;;
66429;SDS011;53242;51.694;10.006;2022-09-13T02:04:38;6.65;;;2.45;;
66429;SDS011;53242;51.694;10.006;2022-09-13T02:07:13;6.35;;;2.50;;
66429;SDS011;53242;51.694;10.006;2022-09-13T02:09:42;5.97;;;2.63;;
66429;SDS011;53242;51.694;10.006;2022-09-13T02:12:18;6.63;;;2.75;;
66429;SDS011;53242;51.694;10.006;2022-09-13T02:14:44;6.97;;;2.58;;
66429;SDS011;53242;51.694;10.006;2022-09-13T02:17:15;6.05;;;2.67;;
66429;SDS011;53242;51.694;10.006;2022-09-13T02:20:00;5.20;;;2.35;;
66429;SDS011;53242;51.694;10.006;2022-09-13T02:22:26;7.63;;;2.67;;
66429;SDS011;53242;51.694;10.006;2022-09-13T02:24:54;7.28;;;2.80;;
66429;SDS011;53242;51.694;10.006;2022-09-13T02:27:20;6.43;;;2.50;;
66429;SDS011;53242;51.694;10.006;2022-09-13T02:29:51;10.07;;;3.00;;
66429;SDS011;53242;51.694;10.006;2022-09-13T02:34:49;6.07;;;2.47;;
66429;SDS011;53242;51.694;10.006;2022-09-13T02:37:15;7.90;;;2.67;;
66429;SDS011;53242;51.694;10.006;2022-09-13T02:39:40;8.02;;;2.63;;
66429;SDS011;53242;51.694;10.006;2022-09-13T02:42:21;5.72;;;2.33;;
66429;SDS011;53242;51.694;10.006;2022-09-13T02:44:56;7.22;;;2.90;;
66429;SDS011;53242;51.694;10.006;2022-09-13T02:52:40;5.32;;;2.33;;
66429;SDS011;53242;51.694;10.006;2022-09-13T02:55:20;7.18;;;2.70;;
66429;SDS011;53242;51.694;10.006;2022-09-13T02:57:53;6.53;;;2.60;;
66429;SDS011;53242;51.694;10.006;2022-09-13T03:00:22;5.18;;;2.25;;
66429;SDS011;53242;51.694;10.006;2022-09-13T03:02:44;7.05;;;2.78;;
66429;SDS011;53242;51.694;10.006;2022-09-13T03:05:09;6.88;;;2.80;;
66429;SDS011;53242;51.694;10.006;2022-09-13T03:07:31;9.35;;;2.90;;
66429;SDS011;53242;51.694;10.006;2022-09-13T03:09:54;8.05;;;3.30;;
66429;SDS011;53242;51.694;10.006;2022-09-13T03:20:11;8.13;;;3.15;;
66429;SDS011;53242;51.694;10.006;2022-09-13T03:25:50;5.80;;;2.83;;
66429;SDS011;53242;51.694;10.006;2022-09-13T03:31:06;7.88;;;3.35;;
66429;SDS011;53242;51.694;10.006;2022-09-13T03:33:46;8.77;;;3.88;;
66429;SDS011;53242;51.694;10.006;2022-09-13T03:36:15;9.75;;;3.80;;
66429;SDS011;53242;51.694;10.006;2022-09-13T03:39:33;9.27;;;3.42;;
66429;SDS011;53242;51.694;10.006;2022-09-13T03:41:41;9.02;;;3.60;;
66429;SDS011;53242;51.694;10.006;2022-09-13T03:44:09;10.55;;;3.92;;
66429;SDS011;53242;51.694;10.006;2022-09-13T03:46:36;7.95;;;3.17;;
66429;SDS011;53242;51.694;10.006;2022-09-13T03:49:02;8.13;;;3.50;;
66429;SDS011;53242;51.694;10.006;2022-09-13T03:51:29;8.57;;;3.50;;
66429;SDS011;53242;51.694;10.006;2022-09-13T03:53:54;8.10;;;3.15;;
66429;SDS011;53242;51.694;10.006;2022-09-13T03:56:21;8.50;;;3.40;;
66429;SDS011;53242;51.694;10.006;2022-09-13T03:58:43;8.00;;;3.30;;
66429;SDS011;53242;51.694;10.006;2022-09-13T04:01:08;8.23;;;3.20;;
66429;SDS011;53242;51.694;10.006;2022-09-13T04:03:31;7.90;;;3.38;;
66429;SDS011;53242;51.694;10.006;2022-09-13T04:05:53;10.43;;;3.40;;
66429;SDS011;53242;51.694;10.006;2022-09-13T04:08:16;8.07;;;3.40;;
66429;SDS011;53242;51.694;10.006;2022-09-13T04:10:38;7.50;;;3.20;;
66429;SDS011;53242;51.694;10.006;2022-09-13T04:13:01;7.95;;;3.00;;
66429;SDS011;53242;51.694;10.006;2022-09-13T04:15:25;8.50;;;2.75;;
66429;SDS011;53242;51.694;10.006;2022-09-13T04:17:47;7.40;;;2.88;;
66429;SDS011;53242;51.694;10.006;2022-09-13T04:20:10;7.55;;;3.33;;
66429;SDS011;53242;51.694;10.006;2022-09-13T04:22:32;7.03;;;2.75;;
66429;SDS011;53242;51.694;10.006;2022-09-13T04:24:55;10.25;;;2.92;;
66429;SDS011;53242;51.694;10.006;2022-09-13T04:27:17;6.53;;;2.85;;
66429;SDS011;53242;51.694;10.006;2022-09-13T04:29:40;8.10;;;3.30;;
66429;SDS011;53242;51.694;10.006;2022-09-13T04:32:02;7.28;;;2.85;;
66429;SDS011;53242;51.694;10.006;2022-09-13T04:34:25;8.63;;;3.20;;
66429;SDS011;53242;51.694;10.006;2022-09-13T04:36:48;8.50;;;3.10;;
66429;SDS011;53242;51.694;10.006;2022-09-13T04:39:11;7.22;;;2.75;;
66429;SDS011;53242;51.694;10.006;2022-09-13T04:41:37;7.13;;;3.10;;
66429;SDS011;53242;51.694;10.006;2022-09-13T04:44:00;8.05;;;3.55;;
66429;SDS011;53242;51.694;10.006;2022-09-13T04:46:23;9.43;;;3.97;;
66429;SDS011;53242;51.694;10.006;2022-09-13T04:48:49;8.82;;;3.90;;
66429;SDS011;53242;51.694;10.006;2022-09-13T04:51:12;9.52;;;3.60;;
66429;SDS011;53242;51.694;10.006;2022-09-13T04:53:35;9.30;;;3.53;;
66429;SDS011;53242;51.694;10.006;2022-09-13T04:56:02;8.90;;;3.50;;
66429;SDS011;53242;51.694;10.006;2022-09-13T04:58:25;8.68;;;3.30;;
66429;SDS011;53242;51.694;10.006;2022-09-13T05:00:47;11.55;;;3.45;;
66429;SDS011;53242;51.694;10.006;2022-09-13T05:03:12;7.93;;;3.53;;
66429;SDS011;53242;51.694;10.006;2022-09-13T05:05:34;9.25;;;3.33;;
66429;SDS011;53242;51.694;10.006;2022-09-13T05:07:57;8.80;;;3.42;;
66429;SDS011;53242;51.694;10.006;2022-09-13T05:10:19;8.45;;;3.72;;
66429;SDS011;53242;51.694;10.006;2022-09-13T05:12:42;11.43;;;3.90;;
66429;SDS011;53242;51.694;10.006;2022-09-13T05:15:05;8.27;;;3.88;;
66429;SDS011;53242;51.694;10.006;2022-09-13T05:17:28;9.50;;;3.92;;
66429;SDS011;53242;51.694;10.006;2022-09-13T05:19:51;7.68;;;3.40;;
66429;SDS011;53242;51.694;10.006;2022-09-13T05:22:13;8.20;;;3.67;;
66429;SDS011;53242;51.694;10.006;2022-09-13T05:24:36;7.18;;;3.15;;
66429;SDS011;53242;51.694;10.006;2022-09-13T05:26:58;7.22;;;3.05;;
66429;SDS011;53242;51.694;10.006;2022-09-13T05:29:21;8.68;;;3.25;;
66429;SDS011;53242;51.694;10.006;2022-09-13T05:31:43;9.15;;;3.60;;
66429;SDS011;53242;51.694;10.006;2022-09-13T05:34:07;8.50;;;3.25;;
66429;SDS011;53242;51.694;10.006;2022-09-13T05:36:31;10.70;;;3.80;;
66429;SDS011;53242;51.694;10.006;2022-09-13T05:38:54;8.55;;;3.63;;
66429;SDS011;53242;51.694;10.006;2022-09-13T05:41:18;8.95;;;3.78;;
66429;SDS011;53242;51.694;10.006;2022-09-13T05:43:40;9.35;;;3.92;;
66429;SDS011;53242;51.694;10.006;2022-09-13T05:46:04;9.52;;;3.83;;
66429;SDS011;53242;51.694;10.006;2022-09-13T05:48:34;10.57;;;4.63;;
66429;SDS011;53242;51.694;10.006;2022-09-13T05:51:02;10.02;;;4.20;;
66429;SDS011;53242;51.694;10.006;2022-09-13T05:53:26;9.18;;;4.00;;
66429;SDS011;53242;51.694;10.006;2022-09-13T05:55:49;9.10;;;3.83;;
66429;SDS011;53242;51.694;10.006;2022-09-13T05:58:11;12.00;;;5.20;;
66429;SDS011;53242;51.694;10.006;2022-09-13T06:00:33;9.98;;;4.30;;
66429;SDS011;53242;51.694;10.006;2022-09-13T06:02:56;8.02;;;3.55;;
66429;SDS011;53242;51.694;10.006;2022-09-13T06:05:19;7.93;;;3.45;;
66429;SDS011;53242;51.694;10.006;2022-09-13T06:07:41;7.55;;;3.35;;
66429;SDS011;53242;51.694;10.006;2022-09-13T06:10:08;8.95;;;3.75;;
66429;SDS011;53242;51.694;10.006;2022-09-13T06:12:31;7.20;;;3.47;;
66429;SDS011;53242;51.694;10.006;2022-09-13T06:14:54;7.65;;;3.22;;
66429;SDS011;53242;51.694;10.006;2022-09-13T06:17:16;9.32;;;3.65;;
66429;SDS011;53242;51.694;10.006;2022-09-13T06:19:38;6.97;;;3.20;;
66429;SDS011;53242;51.694;10.006;2022-09-13T06:22:01;10.27;;;4.43;;
66429;SDS011;53242;51.694;10.006;2022-09-13T06:24:23;8.13;;;3.58;;
66429;SDS011;53242;51.694;10.006;2022-09-13T06:26:46;7.53;;;3.58;;
66429;SDS011;53242;51.694;10.006;2022-09-13T06:29:08;7.30;;;3.15;;
66429;SDS011;53242;51.694;10.006;2022-09-13T06:31:32;8.88;;;3.85;;
66429;SDS011;53242;51.694;10.006;2022-09-13T06:33:58;7.50;;;3.28;;
66429;SDS011;53242;51.694;10.006;2022-09-13T06:36:23;10.25;;;3.72;;
66429;SDS011;53242;51.694;10.006;2022-09-13T06:38:46;8.23;;;3.25;;
66429;SDS011;53242;51.694;10.006;2022-09-13T06:41:12;8.82;;;3.65;;
66429;SDS011;53242;51.694;10.006;2022-09-13T06:43:36;8.57;;;3.60;;
66429;SDS011;53242;51.694;10.006;2022-09-13T06:46:13;8.70;;;3.47;;
66429;SDS011;53242;51.694;10.006;2022-09-13T06:48:38;8.70;;;3.65;;
66429;SDS011;53242;51.694;10.006;2022-09-13T06:51:02;9.10;;;4.03;;
66429;SDS011;53242;51.694;10.006;2022-09-13T06:53:26;8.98;;;3.58;;
66429;SDS011;53242;51.694;10.006;2022-09-13T06:55:58;8.30;;;3.40;;
66429;SDS011;53242;51.694;10.006;2022-09-13T06:58:28;10.20;;;3.50;;
66429;SDS011;53242;51.694;10.006;2022-09-13T07:00:52;7.90;;;3.40;;
66429;SDS011;53242;51.694;10.006;2022-09-13T07:03:15;9.23;;;3.58;;
66429;SDS011;53242;51.694;10.006;2022-09-13T07:05:37;9.13;;;3.53;;
66429;SDS011;53242;51.694;10.006;2022-09-13T07:08:00;10.88;;;3.47;;
66429;SDS011;53242;51.694;10.006;2022-09-13T07:10:22;10.00;;;4.07;;
66429;SDS011;53242;51.694;10.006;2022-09-13T07:12:45;8.18;;;3.42;;
66429;SDS011;53242;51.694;10.006;2022-09-13T07:15:07;8.25;;;3.30;;
66429;SDS011;53242;51.694;10.006;2022-09-13T07:17:30;7.88;;;3.17;;
66429;SDS011;53242;51.694;10.006;2022-09-13T07:19:53;6.70;;;3.35;;
66429;SDS011;53242;51.694;10.006;2022-09-13T07:22:15;9.68;;;3.60;;
66429;SDS011;53242;51.694;10.006;2022-09-13T07:24:37;8.88;;;3.80;;
66429;SDS011;53242;51.694;10.006;2022-09-13T07:27:00;8.50;;;3.40;;
66429;SDS011;53242;51.694;10.006;2022-09-13T07:29:22;9.00;;;3.78;;
66429;SDS011;53242;51.694;10.006;2022-09-13T07:31:46;8.32;;;3.63;;
66429;SDS011;53242;51.694;10.006;2022-09-13T07:34:14;10.02;;;4.18;;
66429;SDS011;53242;51.694;10.006;2022-09-13T07:36:38;7.97;;;3.42;;
66429;SDS011;53242;51.694;10.006;2022-09-13T07:39:01;7.85;;;3.33;;
66429;SDS011;53242;51.694;10.006;2022-09-13T07:41:25;7.57;;;3.47;;
66429;SDS011;53242;51.694;10.006;2022-09-13T07:43:49;8.63;;;3.70;;
66429;SDS011;53242;51.694;10.006;2022-09-13T07:46:20;7.32;;;3.67;;
66429;SDS011;53242;51.694;10.006;2022-09-13T07:48:44;8.38;;;3.63;;
66429;SDS011;53242;51.694;10.006;2022-09-13T07:55:59;10.75;;;3.63;;
66429;SDS011;53242;51.694;10.006;2022-09-13T07:58:23;10.07;;;3.75;;
66429;SDS011;53242;51.694;10.006;2022-09-13T08:00:45;9.32;;;3.80;;
66429;SDS011;53242;51.694;10.006;2022-09-13T08:03:08;9.25;;;3.75;;
66429;SDS011;53242;51.694;10.006;2022-09-13T08:05:32;9.57;;;4.15;;
66429;SDS011;53242;51.694;10.006;2022-09-13T08:08:00;9.93;;;4.05;;
66429;SDS011;53242;51.694;10.006;2022-09-13T08:10:23;8.82;;;4.03;;
66429;SDS011;53242;51.694;10.006;2022-09-13T08:12:45;8.70;;;3.80;;
66429;SDS011;53242;51.694;10.006;2022-09-13T08:15:08;9.95;;;4.03;;
66429;SDS011;53242;51.694;10.006;2022-09-13T08:17:30;8.07;;;3.78;;
66429;SDS011;53242;51.694;10.006;2022-09-13T08:19:53;8.23;;;3.92;;
66429;SDS011;53242;51.694;10.006;2022-09-13T08:22:15;10.13;;;3.95;;
66429;SDS011;53242;51.694;10.006;2022-09-13T08:24:37;8.52;;;3.60;;
66429;SDS011;53242;51.694;10.006;2022-09-13T08:27:00;9.75;;;3.53;;
66429;SDS011;53242;51.694;10.006;2022-09-13T08:29:22;8.38;;;3.97;;
66429;SDS011;53242;51.694;10.006;2022-09-13T08:31:46;9.38;;;3.70;;
66429;SDS011;53242;51.694;10.006;2022-09-13T08:34:09;7.88;;;3.40;;
66429;SDS011;53242;51.694;10.006;2022-09-13T08:36:33;7.57;;;3.25;;
66429;SDS011;53242;51.694;10.006;2022-09-13T08:38:57;8.05;;;3.30;;
66429;SDS011;53242;51.694;10.006;2022-09-13T08:46:50;8.00;;;3.40;;
66429;SDS011;53242;51.694;10.006;2022-09-13T08:49:22;8.35;;;3.40;;
66429;SDS011;53242;51.694;10.006;2022-09-13T08:51:58;7.03;;;3.17;;
66429;SDS011;53242;51.694;10.006;2022-09-13T08:54:28;8.65;;;3.63;;
66429;SDS011;53242;51.694;10.006;2022-09-13T08:57:12;8.48;;;3.13;;
66429;SDS011;53242;51.694;10.006;2022-09-13T08:59:44;8.70;;;3.30;;
66429;SDS011;53242;51.694;10.006;2022-09-13T09:07:46;8.88;;;3.50;;
66429;SDS011;53242;51.694;10.006;2022-09-13T09:10:21;8.13;;;3.60;;
66429;SDS011;53242;51.694;10.006;2022-09-13T09:12:53;9.32;;;3.80;;
66429;SDS011;53242;51.694;10.006;2022-09-13T09:15:26;8.77;;;3.33;;
66429;SDS011;53242;51.694;10.006;2022-09-13T09:17:56;7.30;;;3.33;;
66429;SDS011;53242;51.694;10.006;2022-09-13T09:20:35;8.65;;;3.40;;
66429;SDS011;53242;51.694;10.006;2022-09-13T09:23:04;7.57;;;3.33;;
66429;SDS011;53242;51.694;10.006;2022-09-13T09:25:35;8.20;;;3.70;;
66429;SDS011;53242;51.694;10.006;2022-09-13T09:27:58;7.78;;;3.63;;
66429;SDS011;53242;51.694;10.006;2022-09-13T09:30:20;8.00;;;3.70;;
66429;SDS011;53242;51.694;10.006;2022-09-13T09:32:48;7.80;;;3.60;;
66429;SDS011;53242;51.694;10.006;2022-09-13T09:35:43;9.35;;;3.60;;
66429;SDS011;53242;51.694;10.006;2022-09-13T09:38:34;6.82;;;2.95;;
66429;SDS011;53242;51.694;10.006;2022-09-13T09:41:00;8.48;;;3.50;;
66429;SDS011;53242;51.694;10.006;2022-09-13T09:43:29;6.57;;;3.13;;
66429;SDS011;53242;51.694;10.006;2022-09-13T09:46:00;7.00;;;3.17;;
66429;SDS011;53242;51.694;10.006;2022-09-13T09:48:29;6.85;;;2.90;;
66429;SDS011;53242;51.694;10.006;2022-09-13T09:51:01;6.82;;;2.92;;
66429;SDS011;53242;51.694;10.006;2022-09-13T09:53:32;7.43;;;3.10;;
66429;SDS011;53242;51.694;10.006;2022-09-13T09:56:03;5.88;;;2.75;;
66429;SDS011;53242;51.694;10.006;2022-09-13T09:58:37;5.78;;;2.70;;
66429;SDS011;53242;51.694;10.006;2022-09-13T10:01:02;7.90;;;3.15;;
66429;SDS011;53242;51.694;10.006;2022-09-13T10:03:27;6.85;;;3.30;;
66429;SDS011;53242;51.694;10.006;2022-09-13T10:05:50;6.30;;;2.92;;
66429;SDS011;53242;51.694;10.006;2022-09-13T10:08:27;7.43;;;2.78;;
66429;SDS011;53242;51.694;10.006;2022-09-13T10:10:53;5.53;;;2.80;;
66429;SDS011;53242;51.694;10.006;2022-09-13T10:13:19;6.65;;;3.10;;
66429;SDS011;53242;51.694;10.006;2022-09-13T10:18:15;6.55;;;2.95;;
66429;SDS011;53242;51.694;10.006;2022-09-13T10:20:38;7.35;;;3.20;;
66429;SDS011;53242;51.694;10.006;2022-09-13T10:23:16;7.43;;;3.13;;
66429;SDS011;53242;51.694;10.006;2022-09-13T10:25:43;8.00;;;3.42;;
66429;SDS011;53242;51.694;10.006;2022-09-13T10:28:17;6.20;;;2.55;;
66429;SDS011;53242;51.694;10.006;2022-09-13T10:33:03;5.75;;;2.70;;
66429;SDS011;53242;51.694;10.006;2022-09-13T10:35:28;6.43;;;2.85;;
66429;SDS011;53242;51.694;10.006;2022-09-13T10:37:50;7.82;;;2.97;;
66429;SDS011;53242;51.694;10.006;2022-09-13T10:42:38;7.22;;;2.92;;
66429;SDS011;53242;51.694;10.006;2022-09-13T10:45:02;7.07;;;2.60;;
66429;SDS011;53242;51.694;10.006;2022-09-13T10:50:15;6.50;;;2.90;;
66429;SDS011;53242;51.694;10.006;2022-09-13T10:52:43;8.32;;;2.75;;
66429;SDS011;53242;51.694;10.006;2022-09-13T10:55:15;7.28;;;3.30;;
66429;SDS011;53242;51.694;10.006;2022-09-13T11:00:27;5.15;;;2.70;;
66429;SDS011;53242;51.694;10.006;2022-09-13T11:03:04;8.32;;;3.10;;
66429;SDS011;53242;51.694;10.006;2022-09-13T11:05:44;5.57;;;2.70;;
66429;SDS011;53242;51.694;10.006;2022-09-13T11:08:31;6.30;;;2.85;;
66429;SDS011;53242;51.694;10.006;2022-09-13T11:17:01;6.22;;;2.80;;
66429;SDS011;53242;51.694;10.006;2022-09-13T11:25:02;5.57;;;2.65;;
66429;SDS011;53242;51.694;10.006;2022-09-13T11:27:47;7.70;;;2.92;;
66429;SDS011;53242;51.694;10.006;2022-09-13T11:30:22;6.63;;;2.70;;
66429;SDS011;53242;51.694;10.006;2022-09-13T11:52:21;7.45;;;2.78;;
66429;SDS011;53242;51.694;10.006;2022-09-13T11:57:48;3.83;;;1.90;;
66429;SDS011;53242;51.694;10.006;2022-09-13T12:02:44;12.18;;;2.50;;
66429;SDS011;53242;51.694;10.006;2022-09-13T12:05:14;4.70;;;2.25;;
66429;SDS011;53242;51.694;10.006;2022-09-13T12:07:45;5.30;;;2.30;;
66429;SDS011;53242;51.694;10.006;2022-09-13T12:10:23;6.95;;;2.80;;
66429;SDS011;53242;51.694;10.006;2022-09-13T12:12:50;6.00;;;2.60;;
66429;SDS011;53242;51.694;10.006;2022-09-13T12:15:16;7.50;;;2.70;;
66429;SDS011;53242;51.694;10.006;2022-09-13T12:17:45;5.93;;;2.58;;
66429;SDS011;53242;51.694;10.006;2022-09-13T12:20:29;5.85;;;2.25;;
66429;SDS011;53242;51.694;10.006;2022-09-13T12:22:57;9.80;;;2.28;;
66429;SDS011;53242;51.694;10.006;2022-09-13T12:25:23;4.88;;;2.17;;
66429;SDS011;53242;51.694;10.006;2022-09-13T12:28:02;5.90;;;2.28;;
66429;SDS011;53242;51.694;10.006;2022-09-13T12:30:51;4.78;;;2.25;;
66429;SDS011;53242;51.694;10.006;2022-09-13T12:33:18;6.53;;;2.60;;
66429;SDS011;53242;51.694;10.006;2022-09-13T12:35:47;6.38;;;2.42;;
66429;SDS011;53242;51.694;10.006;2022-09-13T12:43:46;7.43;;;2.75;;
66429;SDS011;53242;51.694;10.006;2022-09-13T12:57:35;5.30;;;2.50;;
66429;SDS011;53242;51.694;10.006;2022-09-13T13:00:09;7.53;;;2.72;;
66429;SDS011;53242;51.694;10.006;2022-09-13T13:02:52;5.82;;;2.45;;
66429;SDS011;53242;51.694;10.006;2022-09-13T13:05:34;6.50;;;2.35;;
66429;SDS011;53242;51.694;10.006;2022-09-13T13:08:02;5.55;;;2.58;;
66429;SDS011;53242;51.694;10.006;2022-09-13T13:10:29;6.80;;;2.60;;
66429;SDS011;53242;51.694;10.006;2022-09-13T13:12:54;4.90;;;2.58;;
66429;SDS011;53242;51.694;10.006;2022-09-13T13:17:49;6.68;;;2.70;;
66429;SDS011;53242;51.694;10.006;2022-09-13T13:25:37;7.63;;;3.13;;
66429;SDS011;53242;51.694;10.006;2022-09-13T13:33:50;5.63;;;2.53;;
66429;SDS011;53242;51.694;10.006;2022-09-13T13:36:22;5.90;;;2.65;;
66429;SDS011;53242;51.694;10.006;2022-09-13T13:38:46;6.07;;;2.80;;
66429;SDS011;53242;51.694;10.006;2022-09-13T13:43:54;6.22;;;2.75;;
66429;SDS011;53242;51.694;10.006;2022-09-13T13:46:27;9.82;;;3.08;;
66429;SDS011;53242;51.694;10.006;2022-09-13T13:48:52;8.70;;;3.50;;
66429;SDS011;53242;51.694;10.006;2022-09-13T13:51:19;7.35;;;2.95;;
66429;SDS011;53242;51.694;10.006;2022-09-13T13:53:51;5.97;;;2.70;;
66429;SDS011;53242;51.694;10.006;2022-09-13T13:56:33;8.35;;;3.60;;
66429;SDS011;53242;51.694;10.006;2022-09-13T13:59:15;12.10;;;3.47;;
66429;SDS011;53242;51.694;10.006;2022-09-13T14:01:43;8.80;;;4.03;;
66429;SDS011;53242;51.694;10.006;2022-09-13T14:07:07;9.63;;;3.38;;
66429;SDS011;53242;51.694;10.006;2022-09-13T14:09:42;7.72;;;3.72;;
66429;SDS011;53242;51.694;10.006;2022-09-13T14:12:44;14.73;;;3.70;;
66429;SDS011;53242;51.694;10.006;2022-09-13T14:15:41;9.00;;;3.72;;
66429;SDS011;53242;51.694;10.006;2022-09-13T14:18:33;8.70;;;3.70;;
66429;SDS011;53242;51.694;10.006;2022-09-13T14:21:22;9.20;;;4.00;;
66429;SDS011;53242;51.694;10.006;2022-09-13T14:23:49;9.68;;;4.30;;
66429;SDS011;53242;51.694;10.006;2022-09-13T14:26:26;8.60;;;4.03;;
66429;SDS011;53242;51.694;10.006;2022-09-13T14:28:49;9.55;;;3.92;;
66429;SDS011;53242;51.694;10.006;2022-09-13T14:31:15;8.45;;;4.28;;
66429;SDS011;53242;51.694;10.006;2022-09-13T14:33:41;11.30;;;4.43;;
66429;SDS011;53242;51.694;10.006;2022-09-13T14:36:07;10.25;;;3.90;;
66429;SDS011;53242;51.694;10.006;2022-09-13T14:38:45;8.48;;;3.90;;
66429;SDS011;53242;51.694;10.006;2022-09-13T14:41:19;8.18;;;3.72;;
66429;SDS011;53242;51.694;10.006;2022-09-13T14:43:43;6.28;;;3.20;;
66429;SDS011;53242;51.694;10.006;2022-09-13T14:46:09;6.00;;;3.30;;
66429;SDS011;53242;51.694;10.006;2022-09-13T14:48:38;6.63;;;3.20;;
66429;SDS011;53242;51.694;10.006;2022-09-13T14:51:21;9.23;;;3.30;;
66429;SDS011;53242;51.694;10.006;2022-09-13T14:53:49;9.15;;;3.45;;
66429;SDS011;53242;51.694;10.006;2022-09-13T14:56:17;8.25;;;3.63;;
66429;SDS011;53242;51.694;10.006;2022-09-13T14:58:50;7.00;;;3.30;;
66429;SDS011;53242;51.694;10.006;2022-09-13T15:01:18;7.50;;;3.10;;
66429;SDS011;53242;51.694;10.006;2022-09-13T15:03:43;8.48;;;3.08;;
66429;SDS011;53242;51.694;10.006;2022-09-13T15:06:07;6.00;;;3.22;;
66429;SDS011;53242;51.694;10.006;2022-09-13T15:08:45;6.07;;;2.92;;
66429;SDS011;53242;51.694;10.006;2022-09-13T15:11:12;9.20;;;3.05;;
66429;SDS011;53242;51.694;10.006;2022-09-13T15:13:36;7.78;;;3.10;;
66429;SDS011;53242;51.694;10.006;2022-09-13T15:16:22;8.75;;;3.42;;
66429;SDS011;53242;51.694;10.006;2022-09-13T15:18:46;8.27;;;3.10;;
66429;SDS011;53242;51.694;10.006;2022-09-13T15:21:16;9.18;;;3.42;;
66429;SDS011;53242;51.694;10.006;2022-09-13T15:23:39;6.07;;;3.30;;
66429;SDS011;53242;51.694;10.006;2022-09-13T15:28:44;7.07;;;2.88;;
66429;SDS011;53242;51.694;10.006;2022-09-13T15:31:08;10.52;;;3.83;;
66429;SDS011;53242;51.694;10.006;2022-09-13T15:36:11;9.10;;;3.35;;
66429;SDS011;53242;51.694;10.006;2022-09-13T15:38:34;10.80;;;3.60;;
66429;SDS011;53242;51.694;10.006;2022-09-13T15:41:01;6.72;;;2.90;;
66429;SDS011;53242;51.694;10.006;2022-09-13T15:43:32;5.72;;;3.20;;
66429;SDS011;53242;51.694;10.006;2022-09-13T15:45:55;14.85;;;3.90;;
66429;SDS011;53242;51.694;10.006;2022-09-13T15:48:31;6.82;;;3.33;;
66429;SDS011;53242;51.694;10.006;2022-09-13T15:51:11;7.97;;;3.22;;
66429;SDS011;53242;51.694;10.006;2022-09-13T15:53:35;9.00;;;3.35;;
66429;SDS011;53242;51.694;10.006;2022-09-13T15:56:00;8.38;;;3.38;;
66429;SDS011;53242;51.694;10.006;2022-09-13T15:58:24;10.43;;;3.30;;
66429;SDS011;53242;51.694;10.006;2022-09-13T16:00:46;10.50;;;3.60;;
66429;SDS011;53242;51.694;10.006;2022-09-13T16:03:09;7.43;;;3.60;;
66429;SDS011;53242;51.694;10.006;2022-09-13T16:05:31;7.45;;;3.15;;
66429;SDS011;53242;51.694;10.006;2022-09-13T16:07:54;9.52;;;3.47;;
66429;SDS011;53242;51.694;10.006;2022-09-13T16:10:20;8.30;;;3.70;;
66429;SDS011;53242;51.694;10.006;2022-09-13T16:12:44;8.70;;;3.70;;
66429;SDS011;53242;51.694;10.006;2022-09-13T16:15:07;9.45;;;3.40;;
66429;SDS011;53242;51.694;10.006;2022-09-13T16:17:30;8.43;;;3.63;;
66429;SDS011;53242;51.694;10.006;2022-09-13T16:19:52;8.30;;;3.58;;
66429;SDS011;53242;51.694;10.006;2022-09-13T16:22:15;10.45;;;4.00;;
66429;SDS011;53242;51.694;10.006;2022-09-13T16:24:38;7.95;;;3.38;;
66429;SDS011;53242;51.694;10.006;2022-09-13T16:27:01;6.63;;;3.35;;
66429;SDS011;53242;51.694;10.006;2022-09-13T16:29:23;8.13;;;4.00;;
66429;SDS011;53242;51.694;10.006;2022-09-13T16:31:46;7.75;;;3.60;;
66429;SDS011;53242;51.694;10.006;2022-09-13T16:34:08;7.03;;;3.58;;
66429;SDS011;53242;51.694;10.006;2022-09-13T16:36:31;7.97;;;3.38;;
66429;SDS011;53242;51.694;10.006;2022-09-13T16:38:55;7.93;;;3.60;;
66429;SDS011;53242;51.694;10.006;2022-09-13T16:41:18;8.57;;;3.78;;
66429;SDS011;53242;51.694;10.006;2022-09-13T16:43:41;8.43;;;3.72;;
66429;SDS011;53242;51.694;10.006;2022-09-13T16:46:07;8.80;;;3.55;;
66429;SDS011;53242;51.694;10.006;2022-09-13T16:48:30;9.65;;;3.67;;
66429;SDS011;53242;51.694;10.006;2022-09-13T16:50:53;8.30;;;3.90;;
66429;SDS011;53242;51.694;10.006;2022-09-13T16:53:15;9.95;;;3.53;;
66429;SDS011;53242;51.694;10.006;2022-09-13T16:55:38;8.10;;;3.75;;
66429;SDS011;53242;51.694;10.006;2022-09-13T16:58:00;8.55;;;3.63;;
66429;SDS011;53242;51.694;10.006;2022-09-13T17:00:23;7.75;;;3.40;;
66429;SDS011;53242;51.694;10.006;2022-09-13T17:02:49;8.77;;;4.10;;
66429;SDS011;53242;51.694;10.006;2022-09-13T17:05:12;7.70;;;3.33;;
66429;SDS011;53242;51.694;10.006;2022-09-13T17:07:34;8.85;;;4.10;;
66429;SDS011;53242;51.694;10.006;2022-09-13T17:09:58;9.27;;;4.43;;